Quicksburg, Virginia
Current Conditions -  °F | °C
As of 3:35 AM on Sunday 23 Nov 2014 (Local Time) from K8W2 Reporting Station
Clear Clear  
Wind Chill: 34°   Ceiling: Unl
Heat Index: 40°   Visibility: 10mi
Dew Point: 20°   Wind: 8mph
Humidity: 45%   Direction: 250°WSW
Pressure: 30.18"   Gusts: NA
Location:  38.69°N, 78.68°W
Report Text: K8W2 230835Z AUTO 25007KT 10SM CLR 04/M07 A3018 RMK AO1 T00441066
Loading
Personal Weather Stations






























Interactive Weather Map New forecast layout! Learn more

10-Day Weather Forecast

Advertisements
Track Severe Weather on mobile